Time;durP1;ratioP1;P1;durP2;ratioP2;P2;SDS_P1;SDS_P2;PMS_P1;PMS_P2;Temp;Humidity;BMP_temperature;BMP_pressure;BME280_temperature;BME280_humidity;BME280_pressure;Samples;Min_cycle;Max_cycle;Signal;HPM_P1;HPM_P2
2021/03/26 00:00:35;;;;;;;26.30;15.67;;;8.40;99.90;;;;;;5097382;28;20536;-67
2021/03/26 00:03:02;;;;;;;23.90;14.80;;;8.40;99.90;;;;;;5111852;28;20500;-67
2021/03/26 00:05:28;;;;;;;26.17;15.50;;;8.40;99.90;;;;;;5096563;28;20487;-67
2021/03/26 00:07:54;;;;;;;26.30;16.67;;;8.40;99.90;;;;;;5110717;28;20794;-66
2021/03/26 00:10:21;;;;;;;25.50;16.47;;;8.40;99.90;;;;;;5116655;28;20433;-67
2021/03/26 00:12:48;;;;;;;27.23;16.87;;;8.40;99.90;;;;;;5103094;28;20506;-67
2021/03/26 00:15:16;;;;;;;23.37;15.83;;;8.40;99.90;;;;;;5103950;28;20545;-67
2021/03/26 00:17:43;;;;;;;28.00;16.87;;;8.40;99.90;;;;;;5100219;28;20449;-67
2021/03/26 00:20:10;;;;;;;28.70;15.37;;;8.40;99.90;;;;;;5116642;28;20429;-67
2021/03/26 00:22:37;;;;;;;46.80;16.63;;;8.40;99.90;;;;;;5110325;28;20853;-67
2021/03/26 00:25:05;;;;;;;27.20;17.00;;;8.30;99.90;;;;;;5114140;28;20895;-67
2021/03/26 00:27:32;;;;;;;26.23;16.20;;;8.30;99.90;;;;;;5110863;28;20438;-67
2021/03/26 00:29:58;;;;;;;29.20;17.43;;;8.40;99.90;;;;;;5095718;28;20541;-67
2021/03/26 00:32:24;;;;;;;24.30;14.80;;;8.30;99.90;;;;;;5095668;28;20434;-67
2021/03/26 00:34:54;;;;;;;24.87;14.20;;;8.30;99.90;;;;;;5096286;28;20529;-68
2021/03/26 00:37:21;;;;;;;25.53;14.50;;;8.20;99.90;;;;;;5116005;28;20524;-68
2021/03/26 00:39:48;;;;;;;25.53;16.17;;;8.20;99.90;;;;;;5107899;28;20448;-67
2021/03/26 00:42:14;;;;;;;23.80;15.33;;;8.10;99.90;;;;;;5113079;28;20532;-68
2021/03/26 00:44:41;;;;;;;25.30;14.73;;;8.10;99.90;;;;;;5095828;28;21037;-66
2021/03/26 00:47:08;;;;;;;28.33;15.60;;;8.00;99.90;;;;;;5113136;28;20531;-67
2021/03/26 00:49:35;;;;;;;26.77;16.80;;;8.00;99.90;;;;;;5112400;28;20536;-67
2021/03/26 00:52:03;;;;;;;27.97;15.70;;;7.90;99.90;;;;;;5099747;28;20461;-67
2021/03/26 00:54:29;;;;;;;29.30;17.03;;;7.90;99.90;;;;;;5093088;28;20552;-68
2021/03/26 00:56:56;;;;;;;25.30;16.00;;;7.80;99.90;;;;;;5094731;28;20545;-67
2021/03/26 00:59:23;;;;;;;26.00;16.53;;;7.80;99.90;;;;;;5096481;28;20490;-67
2021/03/26 01:01:49;;;;;;;28.80;16.80;;;7.70;99.90;;;;;;5103037;28;20529;-68
2021/03/26 01:04:16;;;;;;;22.97;14.37;;;7.70;99.90;;;;;;5110455;28;20946;-67
2021/03/26 01:06:42;;;;;;;26.73;16.63;;;7.60;99.90;;;;;;5097521;28;21062;-67
2021/03/26 01:09:10;;;;;;;26.07;15.97;;;7.60;99.90;;;;;;5108407;28;20442;-67
2021/03/26 01:11:39;;;;;;;27.33;16.93;;;7.60;99.90;;;;;;5095271;28;20554;-67
2021/03/26 01:14:08;;;;;;;29.17;15.73;;;7.50;99.90;;;;;;5111778;28;20536;-67
2021/03/26 01:16:34;;;;;;;25.60;15.90;;;7.50;99.90;;;;;;5099691;28;20541;-67
2021/03/26 01:19:01;;;;;;;25.90;15.93;;;7.50;99.90;;;;;;5112169;28;20526;-68
2021/03/26 01:21:30;;;;;;;24.57;15.90;;;7.50;99.90;;;;;;5103322;28;20520;-67
2021/03/26 01:24:17;;;;;;;25.80;15.27;;;7.50;99.90;;;;;;5101225;28;20474;-67
2021/03/26 01:26:44;;;;;;;25.37;16.37;;;7.40;99.90;;;;;;5097016;28;20874;-66
2021/03/26 01:29:11;;;;;;;25.23;15.60;;;7.40;99.90;;;;;;5109142;28;20500;-67
2021/03/26 01:31:39;;;;;;;30.60;17.63;;;7.40;99.90;;;;;;5094476;28;20507;-66
2021/03/26 01:34:06;;;;;;;25.90;15.57;;;7.30;99.90;;;;;;5101694;28;20854;-67
2021/03/26 01:36:33;;;;;;;28.37;16.30;;;7.20;99.90;;;;;;5097122;28;21073;-66
2021/03/26 01:38:59;;;;;;;28.03;17.87;;;7.20;99.90;;;;;;5111545;28;20525;-66
2021/03/26 01:41:36;;;;;;;30.83;16.87;;;7.20;99.90;;;;;;5101868;28;20755;-67
2021/03/26 01:44:03;;;;;;;27.73;15.97;;;7.10;99.90;;;;;;5094913;28;20572;-66
2021/03/26 01:46:30;;;;;;;29.00;17.40;;;7.10;99.90;;;;;;5093863;28;20477;-67
2021/03/26 01:48:58;;;;;;;26.37;16.40;;;7.10;99.90;;;;;;5105812;28;20571;-67
2021/03/26 01:51:29;;;;;;;26.23;17.10;;;7.10;99.90;;;;;;5099904;28;20961;-67
2021/03/26 01:53:56;;;;;;;27.73;17.43;;;7.00;99.90;;;;;;5114240;28;20463;-67
2021/03/26 01:56:23;;;;;;;27.83;16.37;;;7.00;99.90;;;;;;5093755;28;20537;-67
2021/03/26 01:58:51;;;;;;;28.80;17.13;;;7.00;99.90;;;;;;5106626;28;20515;-68
2021/03/26 02:01:21;;;;;;;30.63;17.47;;;7.00;99.90;;;;;;5101598;28;20495;-67
2021/03/26 02:03:50;;;;;;;28.07;17.00;;;7.00;99.90;;;;;;5093581;28;21069;-68
2021/03/26 02:06:27;;;;;;;25.13;16.03;;;6.90;99.90;;;;;;5094998;28;20444;-67
2021/03/26 02:09:01;;;;;;;30.33;18.57;;;7.00;99.90;;;;;;5101746;28;20442;-67
2021/03/26 02:11:31;;;;;;;27.50;17.43;;;6.90;99.90;;;;;;5093798;28;20456;-67
2021/03/26 02:14:00;;;;;;;27.83;17.33;;;6.90;99.90;;;;;;5093463;28;20456;-67
2021/03/26 02:16:27;;;;;;;28.70;18.27;;;6.90;99.90;;;;;;5096944;28;20526;-67
2021/03/26 02:18:54;;;;;;;30.03;19.53;;;7.10;99.90;;;;;;5100276;28;20529;-68
2021/03/26 02:21:25;;;;;;;28.13;18.07;;;7.00;99.90;;;;;;5091070;28;20447;-67
2021/03/26 02:23:53;;;;;;;34.40;18.70;;;7.10;99.90;;;;;;5089550;28;20989;-68
2021/03/26 02:26:24;;;;;;;31.73;19.07;;;7.20;99.90;;;;;;5093109;28;20472;-67
2021/03/26 02:28:51;;;;;;;35.37;19.40;;;7.20;99.90;;;;;;5100934;28;20488;-67
2021/03/26 02:31:18;;;;;;;32.90;17.37;;;7.40;99.90;;;;;;5101276;28;20530;-67
2021/03/26 02:33:45;;;;;;;28.77;18.30;;;7.40;99.90;;;;;;5112354;28;20473;-67
2021/03/26 02:36:34;;;;;;;36.87;21.37;;;7.50;99.90;;;;;;5113570;28;20484;-67
2021/03/26 02:39:09;;;;;;;37.33;21.30;;;7.60;99.90;;;;;;5104342;28;20529;-67
2021/03/26 02:41:40;;;;;;;32.53;18.90;;;7.60;99.90;;;;;;5092625;28;20442;-67
2021/03/26 02:44:18;;;;;;;33.43;21.33;;;7.60;99.90;;;;;;5093388;28;20481;-68
2021/03/26 02:46:54;;;;;;;30.93;19.40;;;7.50;99.90;;;;;;5092195;28;20474;-66
2021/03/26 02:49:27;;;;;;;34.97;21.40;;;7.50;99.90;;;;;;5094340;28;20448;-66
2021/03/26 02:52:02;;;;;;;32.67;18.33;;;7.50;99.90;;;;;;5092506;28;20446;-67
2021/03/26 02:54:36;;;;;;;33.90;20.20;;;7.50;99.90;;;;;;5093210;28;20453;-68
2021/03/26 02:57:07;;;;;;;32.63;19.73;;;7.50;99.90;;;;;;5092512;28;21013;-67
2021/03/26 02:59:38;;;;;;;34.07;20.47;;;7.50;99.90;;;;;;5092948;28;20545;-67
2021/03/26 03:02:07;;;;;;;34.17;20.87;;;7.50;99.90;;;;;;5092524;28;20537;-67
2021/03/26 03:04:40;;;;;;;33.20;21.90;;;7.40;99.90;;;;;;5092269;28;20523;-67
2021/03/26 03:07:12;;;;;;;30.77;19.13;;;7.40;99.90;;;;;;5094206;28;20448;-67
2021/03/26 03:09:41;;;;;;;33.10;19.97;;;7.40;99.90;;;;;;5098055;28;21007;-67
2021/03/26 03:12:14;;;;;;;37.30;20.70;;;7.40;99.90;;;;;;5092633;28;20540;-67
2021/03/26 03:14:44;;;;;;;34.93;20.07;;;7.40;99.90;;;;;;5092129;28;20434;-67
2021/03/26 03:17:18;;;;;;;36.70;20.53;;;7.50;99.90;;;;;;5092336;28;20994;-68
2021/03/26 03:19:51;;;;;;;32.30;21.20;;;7.50;99.90;;;;;;5092296;28;20875;-67
2021/03/26 03:22:24;;;;;;;34.70;20.60;;;7.60;99.90;;;;;;5092147;28;20526;-66
2021/03/26 03:24:55;;;;;;;32.07;21.27;;;7.60;99.90;;;;;;5086226;28;20482;-67
2021/03/26 03:27:35;;;;;;;37.80;23.80;;;7.60;99.90;;;;;;5089644;28;20446;-66
2021/03/26 03:30:11;;;;;;;32.17;20.60;;;7.60;99.90;;;;;;5086801;28;20433;-67
2021/03/26 03:32:42;;;;;;;33.60;20.27;;;7.60;99.90;;;;;;5090903;28;20898;-67
2021/03/26 03:35:19;;;;;;;29.97;19.93;;;7.50;99.90;;;;;;5092117;28;20541;-67
2021/03/26 03:37:57;;;;;;;30.63;19.50;;;7.40;99.90;;;;;;5100735;28;20937;-66
2021/03/26 03:40:28;;;;;;;28.80;18.87;;;7.40;99.90;;;;;;5101413;28;20448;-67
2021/03/26 03:43:02;;;;;;;39.03;23.33;;;7.30;99.90;;;;;;5099171;28;20469;-67
2021/03/26 03:45:35;;;;;;;33.17;18.70;;;7.20;99.90;;;;;;5091818;28;20474;-67
2021/03/26 03:48:08;;;;;;;30.93;18.93;;;7.20;99.90;;;;;;5099858;28;20449;-68
2021/03/26 03:50:39;;;;;;;27.03;18.43;;;7.10;99.90;;;;;;5091495;28;20452;-67
2021/03/26 03:53:16;;;;;;;34.10;20.70;;;7.00;99.90;;;;;;5092184;28;20458;-67
2021/03/26 03:55:51;;;;;;;32.57;20.60;;;7.00;99.90;;;;;;5092187;28;20533;-66
2021/03/26 03:58:23;;;;;;;36.70;21.73;;;6.90;99.90;;;;;;5107506;28;20519;-67
2021/03/26 04:00:56;;;;;;;35.10;19.47;;;6.90;99.90;;;;;;5105949;28;20450;-67
2021/03/26 04:03:27;;;;;;;31.73;21.10;;;6.80;99.90;;;;;;5071908;28;20913;-67
2021/03/26 04:06:01;;;;;;;32.20;20.50;;;6.80;99.90;;;;;;5076934;28;20473;-66
2021/03/26 04:08:37;;;;;;;33.40;20.80;;;6.70;99.90;;;;;;5108231;28;20448;-66
2021/03/26 04:11:10;;;;;;;32.13;18.67;;;6.70;99.90;;;;;;5105278;28;20536;-67
2021/03/26 04:13:39;;;;;;;32.60;19.97;;;6.60;99.90;;;;;;5091997;28;20525;-66
2021/03/26 04:16:06;;;;;;;33.17;20.43;;;6.60;99.90;;;;;;5091608;28;20434;-67
2021/03/26 04:18:36;;;;;;;42.23;21.03;;;6.60;99.90;;;;;;5104341;28;20545;-67
2021/03/26 04:21:08;;;;;;;33.63;21.30;;;6.50;99.90;;;;;;5103941;28;20480;-67
2021/03/26 04:23:39;;;;;;;32.30;19.17;;;6.50;99.90;;;;;;5093447;28;20485;-67
2021/03/26 04:26:14;;;;;;;34.40;20.80;;;6.50;99.90;;;;;;5091610;28;20442;-67
2021/03/26 04:28:45;;;;;;;36.00;21.17;;;6.50;99.90;;;;;;5091581;28;20489;-66
2021/03/26 04:31:18;;;;;;;33.07;21.10;;;6.50;99.90;;;;;;5092020;28;20521;-67
2021/03/26 04:33:44;;;;;;;32.10;20.93;;;6.50;99.90;;;;;;5091086;28;20471;-67
2021/03/26 04:36:14;;;;;;;33.50;22.07;;;6.50;99.90;;;;;;5091432;28;20934;-66
2021/03/26 04:38:46;;;;;;;39.20;23.33;;;6.50;99.90;;;;;;5106325;28;20536;-66
2021/03/26 04:41:19;;;;;;;37.60;22.43;;;6.50;99.90;;;;;;5112252;28;20536;-67
2021/03/26 04:43:52;;;;;;;35.40;22.00;;;6.50;99.90;;;;;;5096943;28;20477;-66
2021/03/26 04:46:24;;;;;;;40.00;25.70;;;6.40;99.90;;;;;;5095088;28;20445;-67
2021/03/26 04:49:00;;;;;;;41.47;22.77;;;6.50;99.90;;;;;;5093119;28;20961;-66
2021/03/26 04:51:33;;;;;;;42.30;24.73;;;6.50;99.90;;;;;;5095152;28;20540;-66
2021/03/26 04:54:07;;;;;;;38.30;23.63;;;6.50;99.90;;;;;;5095425;28;20484;-66
2021/03/26 04:56:40;;;;;;;39.27;23.63;;;6.50;99.90;;;;;;5092241;28;20450;-66
2021/03/26 04:59:09;;;;;;;36.40;23.00;;;6.50;99.90;;;;;;5094925;28;20553;-66
2021/03/26 05:01:37;;;;;;;36.00;22.33;;;6.50;99.90;;;;;;5091946;28;20481;-66
2021/03/26 05:04:10;;;;;;;35.23;20.87;;;6.50;99.90;;;;;;5094851;28;21014;-66
2021/03/26 05:06:41;;;;;;;38.07;24.93;;;6.50;99.90;;;;;;5098576;28;20412;-66
2021/03/26 05:09:11;;;;;;;35.83;22.27;;;6.50;99.90;;;;;;5108388;28;20533;-66
2021/03/26 05:11:42;;;;;;;33.90;20.40;;;6.50;99.90;;;;;;5103005;28;20586;-66
2021/03/26 05:14:13;;;;;;;35.63;23.70;;;6.50;99.90;;;;;;5094608;28;20446;-66
2021/03/26 05:16:48;;;;;;;34.87;22.67;;;6.40;99.90;;;;;;5101583;28;20471;-67
2021/03/26 05:19:18;;;;;;;34.30;22.83;;;6.40;99.90;;;;;;5109424;28;20986;-66
2021/03/26 05:21:49;;;;;;;39.93;22.03;;;6.40;99.90;;;;;;5093348;28;20441;-66
2021/03/26 05:24:21;;;;;;;34.00;21.43;;;6.40;99.90;;;;;;5078840;28;20484;-65
2021/03/26 05:26:49;;;;;;;38.70;23.23;;;6.40;99.90;;;;;;5088144;28;20446;-67
2021/03/26 05:29:16;;;;;;;34.67;22.13;;;6.40;99.90;;;;;;5080341;28;20445;-66
2021/03/26 05:31:53;;;;;;;38.05;25.10;;;6.30;99.90;;;;;;5089412;28;20546;-66
2021/03/26 05:34:25;;;;;;;39.80;23.30;;;6.30;99.90;;;;;;5083361;28;20227;-66
2021/03/26 05:37:05;;;;;;;39.67;23.53;;;6.30;99.90;;;;;;5095847;28;20549;-67
2021/03/26 05:39:35;;;;;;;8.53;2.50;;;6.40;99.90;;;;;;5094061;28;20512;-53
2021/03/26 05:42:17;;;;;;;18.03;7.63;;;7.50;99.90;;;;;;5093714;28;20573;-58
2021/03/26 05:44:53;;;;;;;31.37;17.90;;;10.10;99.90;;;;;;5085451;28;20565;-56
2021/03/26 05:47:44;;;;;;;31.93;18.03;;;11.00;99.90;;;;;;5099105;28;20538;-63
2021/03/26 05:50:28;;;;;;;30.73;18.87;;;10.90;99.90;;;;;;5096795;28;20485;-64
2021/03/26 05:53:09;;;;;;;31.57;18.40;;;10.10;99.90;;;;;;5093711;28;20899;-65
2021/03/26 05:55:48;;;;;;;34.07;19.77;;;9.60;99.90;;;;;;5093802;28;20900;-63
2021/03/26 05:58:32;;;;;;;29.13;18.40;;;9.20;99.90;;;;;;5094346;28;20532;-64
2021/03/26 06:01:24;;;;;;;32.33;19.83;;;8.80;99.90;;;;;;5095359;28;20521;-63
2021/03/26 06:04:38;;;;;;;34.17;19.87;;;8.50;99.90;;;;;;5089300;28;20477;-66
2021/03/26 06:07:31;;;;;;;30.90;19.67;;;8.30;99.90;;;;;;5068149;28;20461;-63
2021/03/26 06:10:26;;;;;;;31.70;19.80;;;8.10;99.90;;;;;;5105795;28;20437;-66
2021/03/26 06:13:17;;;;;;;33.70;20.67;;;8.00;99.90;;;;;;5097805;28;20512;-64
2021/03/26 06:16:20;;;;;;;32.17;19.90;;;7.80;99.90;;;;;;5095499;28;20450;-62
2021/03/26 06:19:12;;;;;;;32.60;21.30;;;7.80;99.90;;;;;;5092919;28;20468;-64
2021/03/26 06:22:00;;;;;;;33.13;21.00;;;7.80;99.90;;;;;;5102945;28;20441;-65
2021/03/26 06:24:43;;;;;;;40.80;24.60;;;7.80;99.90;;;;;;5095264;28;20488;-64
2021/03/26 06:27:21;;;;;;;38.07;24.23;;;7.80;99.90;;;;;;5089409;28;20443;-66
2021/03/26 06:30:00;;;;;;;38.27;22.40;;;7.90;99.90;;;;;;5088103;28;20958;-64
2021/03/26 06:33:05;;;;;;;38.10;22.60;;;7.90;99.90;;;;;;5097400;28;20965;-64
2021/03/26 06:36:11;;;;;;;40.27;24.37;;;8.00;99.90;;;;;;5101986;28;20941;-64
2021/03/26 06:39:18;;;;;;;40.00;24.60;;;8.10;99.90;;;;;;5066189;28;20435;-66
2021/03/26 06:42:30;;;;;;;35.03;23.20;;;8.30;99.90;;;;;;5094519;28;21022;-63
2021/03/26 06:45:23;;;;;;;35.30;23.13;;;8.40;99.90;;;;;;5086438;28;20509;-66
2021/03/26 06:48:03;;;;;;;33.03;22.53;;;8.60;99.90;;;;;;5090481;28;20530;-66
2021/03/26 06:51:14;;;;;;;39.33;23.60;;;8.60;99.90;;;;;;5092310;28;20463;-63
2021/03/26 06:53:49;;;;;;;35.50;22.27;;;8.70;99.90;;;;;;5024035;28;20537;-62
2021/03/26 06:56:55;;;;;;;35.67;21.87;;;8.90;99.90;;;;;;5091999;28;20860;-67
2021/03/26 06:59:52;;;;;;;35.40;20.70;;;9.00;99.90;;;;;;5108404;28;20446;-61
2021/03/26 07:02:46;;;;;;;36.10;23.07;;;9.10;99.90;;;;;;5095763;28;20839;-68
2021/03/26 07:05:42;;;;;;;43.80;22.97;;;9.20;99.90;;;;;;5097757;28;20820;-63
2021/03/26 07:08:51;;;;;;;37.83;23.40;;;9.30;99.90;;;;;;5105041;28;21179;-64
2021/03/26 07:11:36;;;;;;;33.10;21.63;;;9.40;99.90;;;;;;5057895;28;20983;-64
2021/03/26 07:14:24;;;;;;;35.13;22.60;;;9.50;99.90;;;;;;5104483;28;20539;-66
2021/03/26 07:17:43;;;;;;;35.43;23.07;;;9.60;99.90;;;;;;5099930;28;20433;-63
2021/03/26 07:20:51;;;;;;;37.03;22.80;;;9.70;99.90;;;;;;5110386;28;20997;-66
2021/03/26 07:23:58;;;;;;;33.70;21.93;;;9.80;99.90;;;;;;5082542;28;20433;-63
2021/03/26 07:26:45;;;;;;;34.53;20.83;;;9.90;99.90;;;;;;5098785;28;20487;-67
2021/03/26 07:29:38;;;;;;;35.00;23.17;;;10.00;99.90;;;;;;5096666;28;20507;-64
2021/03/26 07:32:45;;;;;;;38.80;22.20;;;10.10;99.90;;;;;;5099947;28;20838;-64
2021/03/26 07:35:40;;;;;;;35.53;21.97;;;10.30;99.90;;;;;;5104773;28;20438;-65
2021/03/26 07:38:48;;;;;;;34.50;22.03;;;10.40;99.90;;;;;;5100613;28;20449;-64
2021/03/26 07:41:57;;;;;;;30.70;21.13;;;10.50;99.90;;;;;;5067598;28;20529;-65
2021/03/26 07:44:43;;;;;;;31.20;19.50;;;10.80;99.90;;;;;;5092802;28;20506;-64
2021/03/26 07:47:47;;;;;;;29.20;16.97;;;11.50;99.90;;;;;;5090115;28;20460;-63
2021/03/26 07:50:48;;;;;;;28.50;16.70;;;12.50;99.90;;;;;;5086971;28;20425;-63
2021/03/26 07:53:24;;;;;;;29.07;17.40;;;13.70;99.90;;;;;;5091131;28;20978;-68
2021/03/26 07:55:59;;;;;;;30.53;17.60;;;14.10;99.90;;;;;;5086329;28;20444;-66
2021/03/26 07:59:20;;;;;;;26.73;15.80;;;14.70;99.90;;;;;;5092222;28;20446;-63
2021/03/26 08:02:04;;;;;;;27.23;17.20;;;15.50;99.90;;;;;;5092964;28;20506;-67
2021/03/26 08:04:40;;;;;;;25.07;17.27;;;15.60;99.90;;;;;;5092482;28;20473;-68
2021/03/26 08:07:43;;;;;;;25.47;16.57;;;15.20;99.90;;;;;;5094117;28;20433;-64
2021/03/26 08:10:30;;;;;;;21.03;16.10;;;15.50;99.90;;;;;;5101795;28;20459;-66
2021/03/26 08:13:16;;;;;;;24.77;15.57;;;15.70;99.90;;;;;;5095498;28;20453;-66
2021/03/26 08:16:10;;;;;;;23.70;18.05;;;15.70;99.90;;;;;;5091830;28;20519;-64
2021/03/26 08:18:51;;;;;;;21.53;16.17;;;15.90;99.90;;;;;;5087472;28;20303;-64
2021/03/26 08:21:21;;;;;;;22.30;14.70;;;15.80;99.90;;;;;;5098942;28;20457;-67
2021/03/26 08:24:02;;;;;;;25.40;16.50;;;16.00;99.90;;;;;;5092980;28;20565;-64
2021/03/26 08:26:40;;;;;;;20.30;14.80;;;16.70;99.90;;;;;;5090160;28;20521;-65
2021/03/26 08:29:24;;;;;;;20.50;15.13;;;18.10;99.90;;;;;;5092075;28;20951;-64
2021/03/26 08:32:10;;;;;;;19.87;15.23;;;19.40;99.90;;;;;;5089220;28;20841;-67
2021/03/26 08:35:10;;;;;;;22.27;16.83;;;19.70;99.90;;;;;;5091039;28;20463;-62
2021/03/26 08:37:52;;;;;;;23.70;17.23;;;20.40;99.90;;;;;;5090969;28;20550;-68
2021/03/26 08:40:22;;;;;;;22.83;16.13;;;19.40;99.90;;;;;;5093993;28;20481;-63
2021/03/26 08:42:50;;;;;;;22.20;15.50;;;21.00;99.90;;;;;;5091829;28;21076;-61
2021/03/26 08:45:24;;;;;;;21.10;15.60;;;22.00;99.90;;;;;;5095927;28;20488;-65
2021/03/26 08:48:01;;;;;;;18.80;15.90;;;22.50;99.90;;;;;;5089054;28;20525;-68
2021/03/26 08:50:39;;;;;;;19.63;16.70;;;22.00;99.90;;;;;;5099723;28;20453;-66
2021/03/26 08:53:22;;;;;;;21.53;17.03;;;21.40;99.20;;;;;;5092023;28;20536;-67
2021/03/26 08:56:18;;;;;;;21.27;15.20;;;20.50;99.80;;;;;;5088415;28;20446;-68
2021/03/26 08:59:18;;;;;;;19.20;15.37;;;19.80;99.90;;;;;;5092450;28;20485;-65
2021/03/26 09:02:14;;;;;;;20.90;15.40;;;19.10;99.90;;;;;;5097145;28;20463;-68
2021/03/26 09:05:03;;;;;;;17.17;13.67;;;20.00;99.90;;;;;;5091825;28;20825;-67
2021/03/26 09:07:40;;;;;;;18.97;13.63;;;20.90;99.90;;;;;;5092651;28;20529;-68
2021/03/26 09:10:31;;;;;;;21.50;15.60;;;20.80;99.90;;;;;;5092767;28;20520;-64
2021/03/26 09:13:14;;;;;;;19.17;14.10;;;21.00;98.90;;;;;;5092931;28;20861;-67
2021/03/26 09:16:05;;;;;;;15.33;9.97;;;20.90;98.90;;;;;;5087705;28;20537;-56
2021/03/26 09:18:55;;;;;;;15.47;11.77;;;22.00;99.90;;;;;;5094370;28;20446;-57
2021/03/26 09:21:44;;;;;;;16.60;11.50;;;21.50;98.10;;;;;;5082098;28;20529;-54
2021/03/26 09:24:47;;;;;;;16.87;12.90;;;22.30;98.70;;;;;;5093718;28;20548;-53
2021/03/26 09:27:25;;;;;;;13.00;10.40;;;23.30;95.90;;;;;;5092788;28;20454;-56
2021/03/26 09:30:09;;;;;;;15.93;12.30;;;23.80;95.50;;;;;;5092293;28;20537;-54
2021/03/26 09:32:43;;;;;;;14.60;11.77;;;23.40;92.60;;;;;;5092796;28;20519;-55
2021/03/26 09:35:15;;;;;;;16.27;11.73;;;23.00;93.30;;;;;;5090408;28;20445;-53
2021/03/26 09:37:45;;;;;;;15.33;11.30;;;24.00;92.70;;;;;;5092538;28;20541;-57
2021/03/26 09:40:30;;;;;;;15.40;12.60;;;24.70;91.10;;;;;;5100633;28;20438;-56
2021/03/26 09:43:08;;;;;;;13.50;10.23;;;24.20;88.00;;;;;;5076268;28;20447;-55
2021/03/26 09:45:39;;;;;;;13.67;9.83;;;23.00;90.40;;;;;;5087282;28;20998;-57
2021/03/26 09:48:45;;;;;;;14.83;11.80;;;23.10;91.20;;;;;;5092558;28;20995;-49
2021/03/26 09:51:24;;;;;;;16.97;9.40;;;24.30;86.60;;;;;;5079071;28;20447;-56
2021/03/26 09:53:52;;;;;;;16.23;10.70;;;24.50;84.20;;;;;;5082633;28;20435;-66
2021/03/26 09:56:32;;;;;;;15.93;12.33;;;24.40;80.90;;;;;;5089691;28;20266;-64
2021/03/26 09:59:04;;;;;;;17.70;11.17;;;25.20;79.30;;;;;;5084907;28;20485;-63
2021/03/26 10:01:39;;;;;;;12.70;10.30;;;24.60;81.30;;;;;;5103087;28;20429;-66
2021/03/26 10:04:10;;;;;;;12.57;10.00;;;24.90;78.20;;;;;;5094446;28;21833;-65
2021/03/26 10:06:45;;;;;;;13.87;10.40;;;24.60;79.30;;;;;;5093826;28;20464;-63
2021/03/26 10:09:50;;;;;;;13.83;9.50;;;24.60;76.40;;;;;;5085966;28;20455;-67
2021/03/26 10:12:22;;;;;;;15.17;10.20;;;24.20;75.50;;;;;;5091029;28;20453;-64
2021/03/26 10:15:00;;;;;;;14.20;10.30;;;25.10;76.60;;;;;;5089653;28;20528;-65
2021/03/26 10:17:53;;;;;;;14.83;10.63;;;25.40;75.00;;;;;;5090708;28;21056;-64
2021/03/26 10:20:29;;;;;;;15.23;12.03;;;25.20;76.60;;;;;;5077429;28;20448;-64
2021/03/26 10:23:16;;;;;;;15.80;11.10;;;25.30;73.90;;;;;;5103746;28;20450;-63
2021/03/26 10:25:48;;;;;;;13.43;11.10;;;23.90;72.80;;;;;;5097022;28;20482;-63
2021/03/26 10:28:24;;;;;;;17.67;11.10;;;24.30;73.20;;;;;;5108052;28;20528;-67
2021/03/26 10:30:53;;;;;;;16.33;9.00;;;22.70;72.60;;;;;;5097251;28;20433;-63
2021/03/26 10:33:22;;;;;;;13.23;9.43;;;21.50;75.00;;;;;;5111023;28;20542;-65
2021/03/26 10:35:58;;;;;;;15.60;8.47;;;23.30;73.70;;;;;;5096770;28;20442;-65
2021/03/26 10:38:46;;;;;;;13.43;8.90;;;24.70;71.70;;;;;;5109224;28;20441;-63
2021/03/26 10:41:26;;;;;;;10.37;8.07;;;24.20;71.00;;;;;;5095468;28;20437;-67
2021/03/26 10:44:09;;;;;;;12.87;9.03;;;25.80;72.70;;;;;;5105418;28;20473;-68
2021/03/26 10:46:39;;;;;;;14.17;9.17;;;26.90;67.70;;;;;;5099792;28;20972;-63
2021/03/26 10:49:11;;;;;;;12.40;7.80;;;26.40;65.00;;;;;;5094302;28;20522;-61
2021/03/26 10:51:48;;;;;;;11.30;8.33;;;26.60;66.20;;;;;;5089553;28;20578;-65
2021/03/26 10:54:28;;;;;;;10.73;9.03;;;27.30;64.90;;;;;;5091987;28;20551;-64
2021/03/26 10:57:11;;;;;;;14.20;9.90;;;28.20;61.90;;;;;;5085419;28;20438;-63
2021/03/26 10:59:43;;;;;;;12.47;8.80;;;29.10;59.20;;;;;;5084943;28;20453;-65
2021/03/26 11:02:26;;;;;;;15.13;8.70;;;30.00;57.80;;;;;;5103964;28;20452;-68
2021/03/26 11:05:03;;;;;;;9.50;7.43;;;29.70;56.00;;;;;;5107780;28;20600;-69
2021/03/26 11:07:36;;;;;;;11.13;7.87;;;27.80;56.40;;;;;;5110691;28;20472;-63
2021/03/26 11:10:05;;;;;;;13.13;9.13;;;27.90;58.20;;;;;;5100655;28;20533;-65
2021/03/26 11:12:39;;;;;;;11.60;8.50;;;27.30;57.00;;;;;;5110708;28;20512;-62
2021/03/26 11:15:11;;;;;;;12.83;9.40;;;27.90;58.00;;;;;;5111888;28;20443;-64
2021/03/26 11:17:46;;;;;;;10.17;8.03;;;28.40;56.90;;;;;;5091055;28;20563;-66
2021/03/26 11:20:45;;;;;;;12.27;8.93;;;29.40;58.50;;;;;;5102561;28;20451;-64
2021/03/26 11:23:22;;;;;;;12.23;8.67;;;29.60;54.60;;;;;;5099526;28;20459;-62
2021/03/26 11:25:52;;;;;;;12.60;9.30;;;29.50;54.50;;;;;;5097680;28;20488;-66
2021/03/26 11:28:25;;;;;;;10.87;8.40;;;27.40;55.10;;;;;;5103840;28;20443;-63
2021/03/26 11:31:19;;;;;;;11.30;9.10;;;24.10;57.40;;;;;;5092910;28;20453;-63
2021/03/26 11:33:53;;;;;;;13.40;9.87;;;24.20;59.20;;;;;;5090626;28;20512;-65
2021/03/26 11:36:41;;;;;;;11.23;8.50;;;24.50;57.70;;;;;;5103272;28;20532;-64
2021/03/26 11:39:17;;;;;;;14.97;9.33;;;24.80;58.30;;;;;;5082505;28;20446;-64
2021/03/26 11:41:51;;;;;;;12.93;9.00;;;25.50;57.70;;;;;;5080207;28;20524;-66
2021/03/26 11:44:24;;;;;;;11.83;8.93;;;26.40;56.10;;;;;;5086362;28;21028;-64
2021/03/26 11:46:55;;;;;;;13.20;8.80;;;26.90;57.00;;;;;;5089600;28;20462;-64
2021/03/26 11:49:23;;;;;;;11.77;8.20;;;26.80;59.30;;;;;;5090879;28;20458;-65
2021/03/26 11:51:58;;;;;;;11.00;7.57;;;27.30;55.40;;;;;;5090177;28;21245;-66
2021/03/26 11:54:34;;;;;;;9.40;7.63;;;29.20;54.00;;;;;;5090419;28;20506;-65
2021/03/26 11:57:08;;;;;;;11.07;8.77;;;30.30;57.20;;;;;;5093264;28;20506;-64
2021/03/26 12:00:08;;;;;;;11.17;9.80;;;29.70;52.20;;;;;;5110018;28;20528;-66
2021/03/26 12:02:56;;;;;;;9.80;8.27;;;28.50;53.10;;;;;;5089556;28;20977;-65
2021/03/26 12:05:42;;;;;;;13.53;8.70;;;28.00;53.70;;;;;;5092818;28;20626;-65
2021/03/26 12:08:14;;;;;;;11.23;9.77;;;27.90;52.60;;;;;;5082721;28;20939;-65
2021/03/26 12:10:50;;;;;;;12.43;9.00;;;29.40;52.70;;;;;;5091564;28;20470;-65
2021/03/26 12:13:23;;;;;;;14.60;11.20;;;28.30;53.10;;;;;;5089986;28;20978;-65
2021/03/26 12:15:56;;;;;;;13.53;8.80;;;29.60;51.90;;;;;;5084033;28;20588;-64
2021/03/26 12:18:28;;;;;;;13.70;7.60;;;28.40;52.00;;;;;;5090859;28;20845;-68
2021/03/26 12:21:08;;;;;;;12.30;7.93;;;28.50;54.10;;;;;;5096684;28;20441;-64
2021/03/26 12:23:41;;;;;;;12.00;8.40;;;29.50;51.80;;;;;;5110959;28;20523;-65
2021/03/26 12:26:19;;;;;;;8.87;7.07;;;26.90;53.20;;;;;;5108918;28;20441;-64
2021/03/26 12:29:04;;;;;;;9.97;7.67;;;25.50;58.90;;;;;;5111008;28;20531;-65
2021/03/26 12:31:43;;;;;;;11.33;7.90;;;24.60;56.50;;;;;;5108265;28;20436;-63
2021/03/26 12:34:21;;;;;;;11.00;7.67;;;24.80;55.90;;;;;;5101936;28;20819;-67
2021/03/26 12:36:53;;;;;;;12.50;7.63;;;23.60;55.60;;;;;;5091290;28;20512;-63
2021/03/26 12:39:28;;;;;;;13.97;6.93;;;22.10;57.60;;;;;;5111086;28;20525;-65
2021/03/26 12:42:04;;;;;;;11.10;8.53;;;22.90;59.10;;;;;;5091216;28;20485;-63
2021/03/26 12:44:36;;;;;;;12.10;7.60;;;23.70;57.40;;;;;;5090776;28;20485;-64
2021/03/26 12:47:16;;;;;;;9.83;6.00;;;24.00;59.50;;;;;;5093316;28;20487;-67
2021/03/26 12:49:56;;;;;;;10.27;6.30;;;23.20;55.90;;;;;;5111172;28;20425;-63
2021/03/26 12:52:30;;;;;;;13.80;6.30;;;20.90;56.90;;;;;;5103753;28;20627;-65
2021/03/26 12:55:08;;;;;;;7.00;3.57;;;20.30;61.30;;;;;;5094298;28;20449;-57
2021/03/26 12:57:47;;;;;;;8.43;5.23;;;22.70;74.30;;;;;;5111055;28;20493;-52
2021/03/26 13:00:18;;;;;;;9.13;5.70;;;25.50;62.00;;;;;;5105306;28;20529;-50
2021/03/26 13:02:55;;;;;;;8.90;4.80;;;25.50;61.00;;;;;;5089205;28;21031;-66
2021/03/26 13:05:25;;;;;;;9.60;5.40;;;23.50;56.20;;;;;;5102203;28;20567;-69
2021/03/26 13:08:03;;;;;;;10.57;6.00;;;23.60;57.40;;;;;;5093943;28;20434;-67
2021/03/26 13:10:43;;;;;;;7.13;4.07;;;23.60;56.20;;;;;;5094024;28;20446;-66
2021/03/26 13:13:27;;;;;;;7.47;4.60;;;22.80;58.00;;;;;;5072383;28;20449;-64
2021/03/26 13:16:25;;;;;;;9.53;4.87;;;22.00;57.30;;;;;;5068089;28;20888;-66
2021/03/26 13:18:55;;;;;;;8.50;5.20;;;22.90;58.30;;;;;;5085274;28;21020;-65
2021/03/26 13:21:39;;;;;;;8.17;4.60;;;24.70;55.80;;;;;;5088943;28;20457;-62
2021/03/26 13:24:30;;;;;;;9.13;4.90;;;26.30;54.50;;;;;;5100916;28;20866;-66
2021/03/26 13:27:27;;;;;;;6.57;4.20;;;24.40;54.50;;;;;;5100474;28;20440;-63
2021/03/26 13:30:00;;;;;;;7.50;4.07;;;24.60;55.50;;;;;;5097089;28;20983;-61